Terminal Aerodrome Forecast
Issued by NWS Jackson, MS

Home | Current Version | Previous Version | Text Only | Print | Product List | Glossary On
Versions: 1 2 3 4 5 6 7 8 9 10 11 12 13 14 15 16 17 18 19 20 21 22 23 24 25 26 27 28 29 30 31 32 33 34 35 36 37 38
000
FTUS44 KMEG 190532
TAFTUP
TAF
KTUP 190532Z 1906/2006 23010KT P6SM VCSH OVC007
     FM190800 34016G25KT 5SM -RA BR OVC010
     FM191500 32014G21KT P6SM VCSH OVC015
     FM200000 35010KT P6SM OVC018=

USA.gov is the U.S. government's official web portal to all federal, state and local government web resources and services.